createdAt,value
2019-06-08T00:00:45.692Z,99.90
2019-06-08T00:01:52.655Z,99.90
2019-06-08T00:02:59.091Z,99.90
2019-06-08T00:04:06.099Z,99.90
2019-06-08T00:05:12.661Z,99.90
2019-06-08T00:06:20.758Z,99.90
2019-06-08T00:07:27.076Z,99.90
2019-06-08T00:08:34.070Z,99.90
2019-06-08T00:09:40.321Z,99.90
2019-06-08T00:10:47.260Z,99.90
2019-06-08T00:11:53.573Z,99.90
2019-06-08T00:13:01.614Z,99.90
2019-06-08T00:14:07.879Z,99.90
2019-06-08T00:15:16.065Z,99.90
2019-06-08T00:16:23.800Z,99.90
2019-06-08T00:17:38.596Z,99.90
2019-06-08T00:18:38.939Z,99.90
2019-06-08T00:19:45.873Z,99.90
2019-06-08T00:20:52.320Z,99.90
2019-06-08T00:21:59.434Z,99.90
2019-06-08T00:23:05.493Z,99.90
2019-06-08T00:24:13.604Z,99.90
2019-06-08T00:25:20.974Z,99.90
2019-06-08T00:26:28.862Z,99.90
2019-06-08T00:27:35.330Z,99.90
2019-06-08T00:28:42.339Z,99.90
2019-06-08T00:29:48.780Z,99.90
2019-06-08T00:30:55.582Z,99.90
2019-06-08T00:32:01.986Z,99.90
2019-06-08T00:33:08.943Z,99.90
2019-06-08T00:34:16.486Z,99.90
2019-06-08T00:35:24.834Z,99.90
2019-06-08T00:36:31.469Z,99.90
2019-06-08T00:37:38.434Z,99.90
2019-06-08T00:38:44.875Z,99.90
2019-06-08T00:39:52.003Z,99.90
2019-06-08T00:40:58.412Z,99.90
2019-06-08T00:42:05.523Z,99.90
2019-06-08T00:43:11.792Z,99.90
2019-06-08T00:44:19.238Z,99.90
2019-06-08T00:45:25.745Z,99.90
2019-06-08T00:46:32.751Z,99.90
2019-06-08T00:47:47.516Z,99.90
2019-06-08T00:48:47.594Z,99.90
2019-06-08T00:49:54.056Z,99.90
2019-06-08T00:51:00.955Z,99.90
2019-06-08T00:52:08.498Z,99.90
2019-06-08T00:53:15.540Z,99.90
2019-06-08T00:54:21.918Z,99.90
2019-06-08T00:55:29.896Z,99.90
2019-06-08T00:56:36.294Z,99.90
2019-06-08T00:57:42.930Z,99.90
2019-06-08T00:58:49.583Z,99.90
2019-06-08T00:59:56.368Z,99.90
2019-06-08T01:01:02.702Z,99.90
2019-06-08T01:02:09.596Z,99.90
2019-06-08T01:03:17.604Z,99.90
2019-06-08T01:04:24.887Z,99.90
2019-06-08T01:05:31.157Z,99.90
2019-06-08T01:06:38.002Z,99.90
2019-06-08T01:07:44.367Z,99.90
2019-06-08T01:08:50.991Z,99.90
2019-06-08T01:09:57.388Z,99.90
2019-06-08T01:11:04.350Z,99.90
2019-06-08T01:12:10.527Z,99.90
2019-06-08T01:13:18.750Z,99.90
2019-06-08T01:14:25.330Z,99.90
2019-06-08T01:15:34.313Z,99.90
2019-06-08T01:16:40.138Z,99.90
2019-06-08T01:18:01.556Z,99.90
2019-06-08T01:18:55.142Z,99.90
2019-06-08T01:20:02.013Z,99.90
2019-06-08T01:21:09.164Z,99.90
2019-06-08T01:22:15.989Z,99.90
2019-06-08T01:23:23.510Z,99.90
2019-06-08T01:24:30.578Z,99.90
2019-06-08T01:25:36.823Z,99.90
2019-06-08T01:26:43.677Z,99.90
2019-06-08T01:27:50.073Z,99.90
2019-06-08T01:28:56.997Z,99.90
2019-06-08T01:30:03.464Z,99.90
2019-06-08T01:31:10.543Z,99.90
2019-06-08T01:32:16.465Z,99.90
2019-06-08T01:33:24.379Z,99.90
2019-06-08T01:34:31.097Z,99.90
2019-06-08T01:35:38.967Z,99.90
2019-06-08T01:36:45.229Z,99.90
2019-06-08T01:37:52.122Z,99.90
2019-06-08T01:38:58.479Z,99.90
2019-06-08T01:40:06.000Z,99.90
2019-06-08T01:41:12.341Z,99.90
2019-06-08T01:42:19.338Z,99.90
2019-06-08T01:43:27.698Z,99.90
2019-06-08T01:44:34.606Z,99.90
2019-06-08T01:45:40.946Z,99.90
2019-06-08T01:46:47.938Z,99.90
2019-06-08T01:47:54.297Z,99.90
2019-06-08T01:49:01.233Z,99.90
2019-06-08T01:50:07.732Z,99.90
2019-06-08T01:51:14.560Z,99.90
2019-06-08T01:52:20.962Z,99.90
2019-06-08T01:53:28.855Z,99.90
2019-06-08T01:54:35.025Z,99.90
2019-06-08T01:55:41.823Z,99.90
2019-06-08T01:56:48.217Z,99.90
2019-06-08T01:57:55.184Z,99.90
2019-06-08T01:59:01.420Z,99.90
2019-06-08T02:00:39.285Z,99.90
2019-06-08T02:01:17.099Z,99.90
2019-06-08T02:02:24.204Z,99.90
2019-06-08T02:03:30.578Z,99.90
2019-06-08T02:04:37.560Z,99.90
2019-06-08T02:05:43.878Z,99.90
2019-06-08T02:06:50.426Z,99.90
2019-06-08T02:07:57.781Z,99.90
2019-06-08T02:09:06.761Z,99.90
2019-06-08T02:10:13.293Z,99.90
2019-06-08T02:11:21.334Z,99.90
2019-06-08T02:12:28.857Z,99.90
2019-06-08T02:13:35.831Z,99.90
2019-06-08T02:14:42.315Z,99.90
2019-06-08T02:15:49.196Z,99.90
2019-06-08T02:16:55.634Z,99.90
2019-06-08T02:18:02.538Z,99.90
2019-06-08T02:19:08.950Z,99.90
2019-06-08T02:20:17.712Z,99.90
2019-06-08T02:21:24.103Z,99.90
2019-06-08T02:22:31.049Z,99.90
2019-06-08T02:23:37.511Z,99.90
2019-06-08T02:24:44.468Z,99.90
2019-06-08T02:25:50.911Z,99.90
2019-06-08T02:26:57.886Z,99.90
2019-06-08T02:28:04.321Z,99.90
2019-06-08T02:29:11.127Z,99.90
2019-06-08T02:30:18.038Z,99.90
2019-06-08T02:31:25.242Z,99.90
2019-06-08T02:32:33.051Z,99.90
2019-06-08T02:33:40.558Z,99.90
2019-06-08T02:34:46.991Z,99.90
2019-06-08T02:35:53.884Z,99.90
2019-06-08T02:37:00.195Z,99.90
2019-06-08T02:38:07.277Z,99.90
2019-06-08T02:39:13.520Z,99.90
2019-06-08T02:40:20.462Z,99.90
2019-06-08T02:41:26.794Z,99.90
2019-06-08T02:42:35.310Z,99.90
2019-06-08T02:43:41.850Z,99.90
2019-06-08T02:44:48.830Z,99.90
2019-06-08T02:45:55.543Z,99.90
2019-06-08T02:47:02.570Z,99.90
2019-06-08T02:48:09.106Z,99.90
2019-06-08T02:49:16.083Z,99.90
2019-06-08T02:50:47.493Z,99.90
2019-06-08T02:51:55.110Z,99.90
2019-06-08T02:53:01.595Z,99.90
2019-06-08T02:54:08.790Z,99.90
2019-06-08T02:55:15.383Z,99.90
2019-06-08T02:56:24.515Z,99.90
2019-06-08T02:57:33.246Z,99.90
2019-06-08T02:58:43.349Z,99.90
2019-06-08T02:59:50.216Z,99.90
2019-06-08T03:00:57.919Z,99.90
2019-06-08T03:02:04.706Z,99.90
2019-06-08T03:03:12.473Z,99.90
2019-06-08T03:04:19.263Z,99.90
2019-06-08T03:05:27.146Z,99.90
2019-06-08T03:06:36.865Z,99.90
2019-06-08T03:07:46.103Z,99.90
2019-06-08T03:08:54.661Z,99.90
2019-06-08T03:10:03.841Z,99.90
2019-06-08T03:11:10.282Z,99.90
2019-06-08T03:12:18.665Z,99.90
2019-06-08T03:13:25.530Z,99.90
2019-06-08T03:14:35.562Z,99.90
2019-06-08T03:15:43.683Z,99.90
2019-06-08T03:16:50.707Z,99.90
2019-06-08T03:17:56.883Z,99.90
2019-06-08T03:19:20.053Z,99.90
2019-06-08T03:20:12.013Z,99.90
2019-06-08T03:21:18.981Z,99.90
2019-06-08T03:22:25.396Z,99.90
2019-06-08T03:23:34.043Z,99.90
2019-06-08T03:24:41.458Z,99.90
2019-06-08T03:25:53.026Z,99.90
2019-06-08T03:26:56.670Z,99.90
2019-06-08T03:28:03.701Z,99.90
2019-06-08T03:29:10.013Z,99.90
2019-06-08T03:30:19.466Z,99.90
2019-06-08T03:31:25.082Z,99.90
2019-06-08T03:32:33.962Z,99.90
2019-06-08T03:33:48.980Z,99.90
2019-06-08T03:34:55.704Z,99.90
2019-06-08T03:35:58.221Z,99.90
2019-06-08T03:37:04.860Z,99.90
2019-06-08T03:38:11.189Z,99.90
2019-06-08T03:39:18.316Z,99.90
2019-06-08T03:40:24.783Z,99.90
2019-06-08T03:41:31.689Z,99.90
2019-06-08T03:42:38.187Z,99.90
2019-06-08T03:43:45.116Z,99.90
2019-06-08T03:44:51.582Z,99.90
2019-06-08T03:45:58.564Z,99.90
2019-06-08T03:47:05.067Z,99.90
2019-06-08T03:48:11.987Z,99.90
2019-06-08T03:49:18.465Z,99.90
2019-06-08T03:50:26.357Z,99.90
2019-06-08T03:51:37.340Z,99.90
2019-06-08T03:52:42.070Z,99.90
2019-06-08T03:53:49.424Z,99.90
2019-06-08T03:54:56.608Z,99.90
2019-06-08T03:56:02.928Z,99.90
2019-06-08T03:57:09.789Z,99.90
2019-06-08T03:58:16.180Z,99.90
2019-06-08T03:59:23.114Z,99.90
2019-06-08T04:00:29.507Z,99.90
2019-06-08T04:01:37.459Z,99.90
2019-06-08T04:02:44.821Z,99.90
2019-06-08T04:03:52.527Z,99.90
2019-06-08T04:04:59.809Z,99.90
2019-06-08T04:06:06.799Z,99.90
2019-06-08T04:07:14.552Z,99.90
2019-06-08T04:08:21.621Z,99.90
2019-06-08T04:09:27.987Z,99.90
2019-06-08T04:10:34.952Z,99.90
2019-06-08T04:11:42.447Z,99.90
2019-06-08T04:12:50.173Z,99.90
2019-06-08T04:13:56.643Z,99.90
2019-06-08T04:15:03.680Z,99.90
2019-06-08T04:16:10.046Z,99.90
2019-06-08T04:17:16.996Z,99.90
2019-06-08T04:18:23.294Z,99.90
2019-06-08T04:19:30.343Z,99.90
2019-06-08T04:20:38.012Z,99.90
2019-06-08T04:21:46.243Z,99.90
2019-06-08T04:22:52.883Z,99.90
2019-06-08T04:23:59.964Z,99.90
2019-06-08T04:25:06.761Z,99.90
2019-06-08T04:26:13.758Z,99.90
2019-06-08T04:27:20.300Z,99.90
2019-06-08T04:28:27.310Z,99.90
2019-06-08T04:29:33.631Z,99.90
2019-06-08T04:30:41.015Z,99.90
2019-06-08T04:31:50.022Z,99.90
2019-06-08T04:32:56.804Z,99.90
2019-06-08T04:34:03.210Z,99.90
2019-06-08T04:35:10.501Z,99.90
2019-06-08T04:36:16.790Z,99.90
2019-06-08T04:37:23.628Z,99.90
2019-06-08T04:38:30.045Z,99.90
2019-06-08T04:39:38.417Z,99.90
2019-06-08T04:40:46.006Z,99.90
2019-06-08T04:41:53.611Z,99.90
2019-06-08T04:42:59.936Z,99.90
2019-06-08T04:44:06.939Z,99.90
2019-06-08T04:45:13.393Z,99.90
2019-06-08T04:46:20.273Z,99.90
2019-06-08T04:47:26.630Z,99.90
2019-06-08T04:48:33.564Z,99.90
2019-06-08T04:49:40.082Z,99.90
2019-06-08T04:50:48.058Z,99.90
2019-06-08T04:51:55.096Z,99.90
2019-06-08T04:53:02.100Z,99.90
2019-06-08T04:54:08.574Z,99.90
2019-06-08T04:55:15.567Z,99.90
2019-06-08T04:56:23.037Z,99.90
2019-06-08T04:57:29.984Z,99.90
2019-06-08T04:58:36.105Z,99.90
2019-06-08T04:59:43.854Z,99.90
2019-06-08T05:00:51.190Z,99.90
2019-06-08T05:01:58.261Z,99.90
2019-06-08T05:03:04.820Z,99.90
2019-06-08T05:04:11.790Z,99.90
2019-06-08T05:05:18.043Z,99.90
2019-06-08T05:06:24.951Z,99.90
2019-06-08T05:07:31.389Z,99.90
2019-06-08T05:08:39.066Z,99.90
2019-06-08T05:09:45.409Z,99.90
2019-06-08T05:10:52.352Z,99.90
2019-06-08T05:11:58.766Z,99.90
2019-06-08T05:13:05.686Z,99.90
2019-06-08T05:14:12.296Z,99.90
2019-06-08T05:15:19.638Z,99.90
2019-06-08T05:16:26.008Z,99.90
2019-06-08T05:17:32.971Z,99.90
2019-06-08T05:18:39.351Z,99.90
2019-06-08T05:19:47.854Z,99.90
2019-06-08T05:20:54.218Z,99.90
2019-06-08T05:22:00.900Z,99.90
2019-06-08T05:23:07.368Z,99.90
2019-06-08T05:24:14.402Z,99.90
2019-06-08T05:25:20.838Z,99.90
2019-06-08T05:26:27.701Z,99.90
2019-06-08T05:27:34.091Z,99.90
2019-06-08T05:28:41.246Z,99.90
2019-06-08T05:29:47.701Z,99.90
2019-06-08T05:30:54.683Z,99.90
2019-06-08T05:32:01.067Z,99.90
2019-06-08T05:33:08.087Z,99.90
2019-06-08T05:34:14.445Z,99.90
2019-06-08T05:35:21.449Z,99.90
2019-06-08T05:36:27.918Z,99.90
2019-06-08T05:37:35.078Z,99.90
2019-06-08T05:38:41.620Z,99.90
2019-06-08T05:39:49.799Z,99.90
2019-06-08T05:40:56.439Z,99.90
2019-06-08T05:42:03.398Z,99.90
2019-06-08T05:43:09.819Z,99.90
2019-06-08T05:44:16.838Z,99.90
2019-06-08T05:45:23.389Z,99.90
2019-06-08T05:46:30.646Z,99.90
2019-06-08T05:47:37.066Z,99.90
2019-06-08T05:48:44.010Z,99.90
2019-06-08T05:49:50.304Z,99.90
2019-06-08T05:51:04.029Z,99.90
2019-06-08T05:52:05.290Z,99.90
2019-06-08T05:53:12.186Z,99.90
2019-06-08T05:54:18.587Z,99.90
2019-06-08T05:55:25.543Z,99.90
2019-06-08T05:56:31.845Z,99.90
2019-06-08T05:57:40.018Z,99.90
2019-06-08T05:58:46.594Z,99.90
2019-06-08T05:59:53.621Z,99.90
2019-06-08T06:01:00.059Z,99.90
2019-06-08T06:02:07.084Z,99.90
2019-06-08T06:03:13.300Z,99.90
2019-06-08T06:04:20.125Z,99.90
2019-06-08T06:05:26.548Z,99.90
2019-06-08T06:06:33.494Z,99.90
2019-06-08T06:07:40.539Z,99.90
2019-06-08T06:08:48.681Z,99.90
2019-06-08T06:09:55.186Z,99.90
2019-06-08T06:11:02.234Z,99.90
2019-06-08T06:12:08.721Z,99.90
2019-06-08T06:13:15.642Z,99.90
2019-06-08T06:14:22.008Z,99.90
2019-06-08T06:15:29.096Z,99.90
2019-06-08T06:16:35.551Z,99.90
2019-06-08T06:17:43.961Z,99.90
2019-06-08T06:18:52.221Z,99.90
2019-06-08T06:19:59.252Z,99.90
2019-06-08T06:21:10.932Z,99.90
2019-06-08T06:22:14.510Z,99.90
2019-06-08T06:23:20.815Z,99.90
2019-06-08T06:24:27.746Z,99.90
2019-06-08T06:25:34.111Z,99.90
2019-06-08T06:26:41.280Z,99.90
2019-06-08T06:27:47.783Z,99.90
2019-06-08T06:28:54.725Z,99.90
2019-06-08T06:30:01.280Z,99.90
2019-06-08T06:31:08.251Z,99.90
2019-06-08T06:32:14.620Z,99.90
2019-06-08T06:33:21.521Z,99.90
2019-06-08T06:34:27.954Z,99.90
2019-06-08T06:35:34.934Z,99.90
2019-06-08T06:36:41.743Z,99.90
2019-06-08T06:37:50.155Z,99.90
2019-06-08T06:38:56.854Z,99.90
2019-06-08T06:40:03.832Z,99.90
2019-06-08T06:41:10.081Z,99.90
2019-06-08T06:42:17.044Z,99.90
2019-06-08T06:43:23.711Z,99.90
2019-06-08T06:44:31.848Z,99.90
2019-06-08T06:45:38.209Z,99.90
2019-06-08T06:46:46.114Z,99.90
2019-06-08T06:47:53.589Z,99.90
2019-06-08T06:49:01.008Z,99.90
2019-06-08T06:50:08.074Z,99.90
2019-06-08T06:51:25.616Z,99.90
2019-06-08T06:52:22.888Z,99.90
2019-06-08T06:53:29.667Z,99.90
2019-06-08T06:54:36.106Z,99.90
2019-06-08T06:55:43.221Z,99.90
2019-06-08T06:56:49.640Z,99.90
2019-06-08T06:57:56.571Z,99.90
2019-06-08T06:59:03.111Z,99.90
2019-06-08T07:00:11.126Z,99.90
2019-06-08T07:01:17.696Z,99.90
2019-06-08T07:02:24.798Z,99.90
2019-06-08T07:03:31.255Z,99.90
2019-06-08T07:04:38.334Z,99.90
2019-06-08T07:05:45.751Z,99.90
2019-06-08T07:06:54.502Z,99.90
2019-06-08T07:08:00.946Z,99.90
2019-06-08T07:09:08.796Z,99.90
2019-06-08T07:10:15.334Z,99.90
2019-06-08T07:11:22.494Z,99.90
2019-06-08T07:12:29.122Z,99.90
2019-06-08T07:13:36.113Z,99.90
2019-06-08T07:14:42.619Z,99.90
2019-06-08T07:15:53.127Z,99.90
2019-06-08T07:16:58.301Z,99.90
2019-06-08T07:18:06.572Z,99.90
2019-06-08T07:19:12.914Z,99.90
2019-06-08T07:20:19.742Z,99.90
2019-06-08T07:21:40.717Z,99.90
2019-06-08T07:22:34.915Z,99.90
2019-06-08T07:23:41.196Z,99.90
2019-06-08T07:24:50.281Z,99.90
2019-06-08T07:25:56.979Z,99.90
2019-06-08T07:27:03.753Z,99.90
2019-06-08T07:28:10.408Z,99.90
2019-06-08T07:29:17.350Z,99.90
2019-06-08T07:30:24.365Z,99.90
2019-06-08T07:31:31.344Z,99.90
2019-06-08T07:32:37.699Z,99.90
2019-06-08T07:33:44.761Z,99.90
2019-06-08T07:34:51.561Z,99.90
2019-06-08T07:35:59.884Z,99.90
2019-06-08T07:37:06.363Z,99.90
2019-06-08T07:38:13.474Z,99.90
2019-06-08T07:39:20.016Z,99.90
2019-06-08T07:40:27.309Z,99.90
2019-06-08T07:41:33.792Z,99.90
2019-06-08T07:42:40.648Z,99.90
2019-06-08T07:43:47.993Z,99.90
2019-06-08T07:44:55.391Z,99.90
2019-06-08T07:46:01.399Z,99.90
2019-06-08T07:47:07.967Z,99.90
2019-06-08T07:48:13.927Z,99.90
2019-06-08T07:49:20.625Z,99.90
2019-06-08T07:50:26.734Z,99.90
2019-06-08T07:51:33.292Z,99.90
2019-06-08T07:52:39.362Z,99.90
2019-06-08T07:53:47.055Z,99.90
2019-06-08T07:54:54.638Z,99.90
2019-06-08T07:56:01.795Z,99.90
2019-06-08T07:57:08.244Z,99.90
2019-06-08T07:58:15.210Z,99.90
2019-06-08T07:59:21.515Z,99.90
2019-06-08T08:00:28.375Z,99.90
2019-06-08T08:01:36.577Z,99.90
2019-06-08T08:02:43.484Z,99.90
2019-06-08T08:03:49.960Z,99.90
2019-06-08T08:04:58.853Z,99.90
2019-06-08T08:06:05.456Z,99.90
2019-06-08T08:07:12.405Z,99.90
2019-06-08T08:08:18.904Z,99.90
2019-06-08T08:09:25.752Z,99.90
2019-06-08T08:10:32.151Z,99.90
2019-06-08T08:11:38.956Z,99.90
2019-06-08T08:12:45.522Z,99.90
2019-06-08T08:13:53.224Z,99.90
2019-06-08T08:15:00.518Z,99.90
2019-06-08T08:16:07.687Z,99.90
2019-06-08T08:17:14.163Z,99.90
2019-06-08T08:18:20.949Z,99.90
2019-06-08T08:19:27.458Z,99.90
2019-06-08T08:20:34.378Z,99.90
2019-06-08T08:21:40.894Z,99.90
2019-06-08T08:22:52.707Z,99.90
2019-06-08T08:23:59.411Z,99.90
2019-06-08T08:25:05.190Z,99.90
2019-06-08T08:26:11.827Z,99.90
2019-06-08T08:27:18.766Z,99.90
2019-06-08T08:28:27.849Z,99.90
2019-06-08T08:29:38.234Z,99.90
2019-06-08T08:30:44.305Z,99.90
2019-06-08T08:31:53.396Z,99.90
2019-06-08T08:33:03.024Z,99.90
2019-06-08T08:34:09.062Z,99.90
2019-06-08T08:35:15.429Z,99.90
2019-06-08T08:36:22.459Z,99.90
2019-06-08T08:37:28.849Z,99.90
2019-06-08T08:38:38.069Z,99.90
2019-06-08T08:39:43.995Z,99.90
2019-06-08T08:40:51.723Z,99.90
2019-06-08T08:42:04.382Z,99.90
2019-06-08T08:43:09.374Z,99.90
2019-06-08T08:44:17.589Z,99.90
2019-06-08T08:45:24.612Z,99.90
2019-06-08T08:46:30.928Z,99.90
2019-06-08T08:47:38.776Z,99.90
2019-06-08T08:48:45.479Z,99.90
2019-06-08T08:49:52.414Z,99.90
2019-06-08T08:51:00.840Z,99.90
2019-06-08T08:52:11.495Z,99.90
2019-06-08T08:53:18.534Z,99.90
2019-06-08T08:54:27.535Z,99.90
2019-06-08T08:55:33.233Z,99.90
2019-06-08T08:56:40.204Z,99.90
2019-06-08T08:57:48.425Z,99.90
2019-06-08T08:58:56.562Z,99.90
2019-06-08T09:00:04.998Z,99.90
2019-06-08T09:01:11.832Z,99.90
2019-06-08T09:02:21.273Z,99.90
2019-06-08T09:03:30.909Z,99.90
2019-06-08T09:04:38.067Z,99.90
2019-06-08T09:05:44.848Z,99.90
2019-06-08T09:06:51.981Z,99.90
2019-06-08T09:08:02.011Z,99.90
2019-06-08T09:09:08.902Z,99.90
2019-06-08T09:10:18.324Z,99.90
2019-06-08T09:11:24.521Z,99.90
2019-06-08T09:12:31.471Z,99.90
2019-06-08T09:13:37.900Z,99.90
2019-06-08T09:14:47.351Z,99.90
2019-06-08T09:15:53.775Z,99.90
2019-06-08T09:17:02.195Z,99.90
2019-06-08T09:18:08.930Z,99.90
2019-06-08T09:19:20.569Z,99.90
2019-06-08T09:20:24.159Z,99.90
2019-06-08T09:21:32.368Z,99.90
2019-06-08T09:22:52.883Z,99.90
2019-06-08T09:23:48.585Z,99.90
2019-06-08T09:24:56.882Z,99.90
2019-06-08T09:26:08.998Z,99.90
2019-06-08T09:27:12.020Z,99.90
2019-06-08T09:28:19.111Z,99.90
2019-06-08T09:29:25.698Z,99.90
2019-06-08T09:30:33.280Z,99.90
2019-06-08T09:31:40.634Z,99.90
2019-06-08T09:32:47.949Z,99.90
2019-06-08T09:33:59.492Z,99.90
2019-06-08T09:35:04.805Z,99.90
2019-06-08T09:36:11.519Z,99.90
2019-06-08T09:37:18.616Z,99.90
2019-06-08T09:38:25.231Z,99.90
2019-06-08T09:39:32.257Z,99.90
2019-06-08T09:40:38.923Z,99.90
2019-06-08T09:41:47.980Z,99.90
2019-06-08T09:43:01.049Z,99.90
2019-06-08T09:44:05.749Z,99.90
2019-06-08T09:45:12.300Z,99.90
2019-06-08T09:46:19.326Z,99.90
2019-06-08T09:47:27.893Z,99.90
2019-06-08T09:48:34.577Z,99.90
2019-06-08T09:49:41.418Z,99.90
2019-06-08T09:50:48.757Z,99.90
2019-06-08T09:51:58.049Z,99.90
2019-06-08T09:53:22.315Z,99.90
2019-06-08T09:54:13.057Z,99.90
2019-06-08T09:55:20.547Z,99.90
2019-06-08T09:56:28.249Z,99.90
2019-06-08T09:57:35.524Z,99.90
2019-06-08T09:58:42.162Z,99.90
2019-06-08T09:59:49.192Z,99.90
2019-06-08T10:00:57.227Z,99.90
2019-06-08T10:02:09.084Z,99.90
2019-06-08T10:03:12.388Z,99.90
2019-06-08T10:04:19.239Z,99.90
2019-06-08T10:05:27.490Z,99.90
2019-06-08T10:06:34.376Z,99.90
2019-06-08T10:07:40.803Z,99.90
2019-06-08T10:08:48.048Z,99.90
2019-06-08T10:09:58.508Z,99.90
2019-06-08T10:11:05.978Z,99.90
2019-06-08T10:12:12.419Z,99.90
2019-06-08T10:13:19.654Z,99.90
2019-06-08T10:14:28.077Z,99.90
2019-06-08T10:15:34.435Z,99.90
2019-06-08T10:16:40.940Z,99.90
2019-06-08T10:17:48.190Z,99.90
2019-06-08T10:18:54.995Z,99.90
2019-06-08T10:20:03.432Z,99.90
2019-06-08T10:21:10.310Z,99.90
2019-06-08T10:22:18.268Z,99.90
2019-06-08T10:23:33.463Z,99.90
2019-06-08T10:24:33.164Z,99.90
2019-06-08T10:25:39.524Z,99.90
2019-06-08T10:26:47.807Z,99.90
2019-06-08T10:27:55.321Z,99.90
2019-06-08T10:29:04.136Z,99.90
2019-06-08T10:30:10.622Z,99.90
2019-06-08T10:31:17.784Z,99.90
2019-06-08T10:32:28.053Z,99.90
2019-06-08T10:33:34.464Z,99.90
2019-06-08T10:34:41.081Z,99.90
2019-06-08T10:35:48.198Z,99.90
2019-06-08T10:36:55.529Z,99.90
2019-06-08T10:38:07.120Z,99.90
2019-06-08T10:39:11.837Z,99.90
2019-06-08T10:40:19.119Z,99.90
2019-06-08T10:41:27.651Z,99.90
2019-06-08T10:42:33.721Z,99.90
2019-06-08T10:43:40.116Z,99.90
2019-06-08T10:44:46.978Z,99.90
2019-06-08T10:45:53.435Z,99.90
2019-06-08T10:47:02.170Z,99.90
2019-06-08T10:48:09.608Z,99.90
2019-06-08T10:49:18.611Z,99.90
2019-06-08T10:50:24.420Z,99.90
2019-06-08T10:51:31.500Z,99.90
2019-06-08T10:52:39.098Z,99.90
2019-06-08T10:53:52.029Z,99.90
2019-06-08T10:54:54.300Z,99.90
2019-06-08T10:56:02.759Z,99.90
2019-06-08T10:57:09.934Z,99.90
2019-06-08T10:58:19.387Z,99.90
2019-06-08T10:59:25.052Z,99.90
2019-06-08T11:00:32.127Z,99.90
2019-06-08T11:01:38.655Z,99.90
2019-06-08T11:02:48.705Z,99.90
2019-06-08T11:03:53.767Z,99.90
2019-06-08T11:05:04.715Z,99.90
2019-06-08T11:06:12.852Z,99.90
2019-06-08T11:07:17.617Z,99.90
2019-06-08T11:08:24.204Z,99.90
2019-06-08T11:09:31.151Z,99.90
2019-06-08T11:10:37.522Z,99.90
2019-06-08T11:11:44.453Z,99.90
2019-06-08T11:12:51.251Z,99.90
2019-06-08T11:14:00.044Z,99.90
2019-06-08T11:15:09.619Z,99.90
2019-06-08T11:16:18.037Z,99.90
2019-06-08T11:17:23.730Z,99.90
2019-06-08T11:18:30.828Z,99.90
2019-06-08T11:19:38.122Z,99.90
2019-06-08T11:20:47.762Z,99.90
2019-06-08T11:21:53.285Z,99.90
2019-06-08T11:23:02.110Z,99.90
2019-06-08T11:24:21.146Z,99.90
2019-06-08T11:25:20.545Z,99.90
2019-06-08T11:26:28.946Z,99.90
2019-06-08T11:27:38.625Z,99.90
2019-06-08T11:28:44.727Z,99.90
2019-06-08T11:29:53.494Z,99.90
2019-06-08T11:31:01.784Z,99.90
2019-06-08T11:32:12.072Z,99.90
2019-06-08T11:33:17.204Z,99.90
2019-06-08T11:34:24.272Z,99.90
2019-06-08T11:35:30.685Z,99.90
2019-06-08T11:36:39.444Z,99.90
2019-06-08T11:37:48.700Z,99.90
2019-06-08T11:38:54.569Z,99.90
2019-06-08T11:40:02.164Z,99.90
2019-06-08T11:41:12.165Z,99.90
2019-06-08T11:42:19.093Z,99.90
2019-06-08T11:43:28.552Z,99.90
2019-06-08T11:44:34.282Z,99.90
2019-06-08T11:45:41.310Z,99.90
2019-06-08T11:46:47.862Z,99.90
2019-06-08T11:47:55.054Z,99.90
2019-06-08T11:49:05.044Z,99.90
2019-06-08T11:50:13.364Z,99.90
2019-06-08T11:51:20.031Z,99.90
2019-06-08T11:52:28.559Z,99.90
2019-06-08T11:53:38.288Z,99.90
2019-06-08T11:54:44.222Z,99.90
2019-06-08T11:55:51.400Z,99.90
2019-06-08T11:56:58.576Z,99.90
2019-06-08T11:58:05.584Z,99.90
2019-06-08T11:59:14.550Z,96.10
2019-06-08T12:00:48.781Z,93.40
2019-06-08T12:01:55.750Z,88.20
2019-06-08T12:03:02.322Z,87.00
2019-06-08T12:04:10.401Z,79.90
2019-06-08T12:05:18.097Z,79.40
2019-06-08T12:06:25.246Z,76.90
2019-06-08T12:07:31.599Z,74.80
2019-06-08T12:08:38.502Z,75.90
2019-06-08T12:09:44.784Z,73.70
2019-06-08T12:10:51.490Z,72.10
2019-06-08T12:11:58.846Z,70.50
2019-06-08T12:13:07.112Z,69.00
2019-06-08T12:14:14.349Z,69.40
2019-06-08T12:15:23.159Z,67.90
2019-06-08T12:16:32.108Z,66.00
2019-06-08T12:17:39.070Z,59.20
2019-06-08T12:18:49.005Z,58.80
2019-06-08T12:19:54.269Z,58.30
2019-06-08T12:21:01.508Z,58.40
2019-06-08T12:22:10.343Z,54.60
2019-06-08T12:23:16.720Z,58.10
2019-06-08T12:24:23.704Z,56.30
2019-06-08T12:25:30.048Z,55.80
2019-06-08T12:26:37.040Z,55.50
2019-06-08T12:27:43.374Z,57.40
2019-06-08T12:28:50.417Z,53.60
2019-06-08T12:29:58.752Z,55.00
2019-06-08T12:31:04.927Z,53.40
2019-06-08T12:32:12.746Z,51.00
2019-06-08T12:33:22.797Z,51.70
2019-06-08T12:34:28.281Z,50.90
2019-06-08T12:35:35.323Z,50.80
2019-06-08T12:36:41.612Z,53.20
2019-06-08T12:37:51.448Z,49.70
2019-06-08T12:38:58.584Z,49.10
2019-06-08T12:40:09.341Z,48.80
2019-06-08T12:41:14.418Z,46.90
2019-06-08T12:42:24.863Z,47.70
2019-06-08T12:43:30.459Z,48.30
2019-06-08T12:44:38.268Z,47.60
2019-06-08T12:45:45.676Z,49.50
2019-06-08T12:46:53.175Z,48.80
2019-06-08T12:47:59.808Z,47.40
2019-06-08T12:49:08.636Z,47.20
2019-06-08T12:50:16.468Z,47.60
2019-06-08T12:51:23.723Z,45.70
2019-06-08T12:52:29.836Z,47.60
2019-06-08T12:53:38.212Z,46.60
2019-06-08T12:54:59.748Z,46.60
2019-06-08T12:55:53.460Z,44.70
2019-06-08T12:57:00.773Z,44.80
2019-06-08T12:58:09.644Z,44.10
2019-06-08T12:59:20.847Z,45.00
2019-06-08T13:00:24.928Z,44.50
2019-06-08T13:01:31.324Z,45.80
2019-06-08T13:02:38.403Z,43.70
2019-06-08T13:03:48.462Z,47.40
2019-06-08T13:04:57.832Z,46.20
2019-06-08T13:06:07.567Z,45.00
2019-06-08T13:07:17.023Z,45.60
2019-06-08T13:08:28.521Z,45.70
2019-06-08T13:09:37.956Z,44.80
2019-06-08T13:10:44.851Z,46.00
2019-06-08T13:11:51.955Z,46.70
2019-06-08T13:12:59.536Z,47.90
2019-06-08T13:14:10.259Z,49.00
2019-06-08T13:15:21.484Z,51.50
2019-06-08T13:16:28.220Z,52.30
2019-06-08T13:17:34.121Z,54.20
2019-06-08T13:18:41.326Z,55.30
2019-06-08T13:19:48.182Z,57.00
2019-06-08T13:20:55.303Z,58.50
2019-06-08T13:22:01.607Z,61.40
2019-06-08T13:23:09.998Z,61.20
2019-06-08T13:24:17.281Z,64.40
2019-06-08T13:25:37.502Z,63.60
2019-06-08T13:26:32.563Z,65.10
2019-06-08T13:27:40.539Z,66.70
2019-06-08T13:28:46.979Z,66.90
2019-06-08T13:29:53.954Z,66.50
2019-06-08T13:31:00.266Z,66.80
2019-06-08T13:32:07.916Z,67.80
2019-06-08T13:33:14.395Z,66.20
2019-06-08T13:34:24.150Z,67.20
2019-06-08T13:35:30.655Z,68.40
2019-06-08T13:36:39.364Z,70.20
2019-06-08T13:37:47.440Z,72.50
2019-06-08T13:38:54.718Z,73.90
2019-06-08T13:40:01.291Z,76.80
2019-06-08T13:41:08.773Z,77.60
2019-06-08T13:42:17.527Z,78.80
2019-06-08T13:43:23.766Z,78.00
2019-06-08T13:44:30.202Z,79.40
2019-06-08T13:45:39.427Z,78.70
2019-06-08T13:46:47.857Z,79.20
2019-06-08T13:47:55.047Z,81.10
2019-06-08T13:49:01.332Z,81.70
2019-06-08T13:50:11.024Z,82.40
2019-06-08T13:51:19.849Z,84.80
2019-06-08T13:52:27.995Z,86.30
2019-06-08T13:53:33.278Z,86.20
2019-06-08T13:54:40.346Z,85.90
2019-06-08T13:55:53.317Z,90.40
2019-06-08T13:56:55.437Z,93.90
2019-06-08T13:58:01.806Z,99.90
2019-06-08T13:59:08.984Z,99.90
2019-06-08T14:00:18.304Z,99.90
2019-06-08T14:01:24.808Z,99.90
2019-06-08T14:02:31.674Z,99.90
2019-06-08T14:03:38.979Z,99.90
2019-06-08T14:04:46.761Z,99.90
2019-06-08T14:05:54.289Z,99.90
2019-06-08T14:07:01.225Z,99.90
2019-06-08T14:08:10.579Z,99.90
2019-06-08T14:09:16.966Z,99.90
2019-06-08T14:10:34.019Z,99.90
2019-06-08T14:11:43.779Z,99.90
2019-06-08T14:12:50.637Z,99.90
2019-06-08T14:14:00.859Z,99.90
2019-06-08T14:15:08.552Z,99.90
2019-06-08T14:16:16.045Z,99.90
2019-06-08T14:17:24.187Z,99.90
2019-06-08T14:18:34.329Z,99.90
2019-06-08T14:19:41.562Z,99.90
2019-06-08T14:20:48.461Z,99.90
2019-06-08T14:21:55.560Z,99.90
2019-06-08T14:23:02.138Z,99.90
2019-06-08T14:24:10.093Z,99.90
2019-06-08T14:25:19.811Z,99.90
2019-06-08T14:26:25.997Z,99.90
2019-06-08T14:27:33.509Z,99.90